sensor_id;sensor_type;location;lat;lon;timestamp;P1;durP1;ratioP1;P2;durP2;ratioP2
44558;SDS011;30270;40.238;18.256;2022-07-17T00:01:30;6.50;;;3.83;;
44558;SDS011;30270;40.238;18.256;2022-07-17T00:03:58;6.97;;;3.28;;
44558;SDS011;30270;40.238;18.256;2022-07-17T00:06:25;5.22;;;3.45;;
44558;SDS011;30270;40.238;18.256;2022-07-17T00:08:53;4.43;;;2.92;;
44558;SDS011;30270;40.238;18.256;2022-07-17T00:11:21;5.78;;;3.08;;
44558;SDS011;30270;40.238;18.256;2022-07-17T00:13:49;6.13;;;3.30;;
44558;SDS011;30270;40.238;18.256;2022-07-17T00:16:17;4.75;;;3.50;;
44558;SDS011;30270;40.238;18.256;2022-07-17T00:18:45;3.90;;;3.17;;
44558;SDS011;30270;40.238;18.256;2022-07-17T00:21:12;5.93;;;3.45;;
44558;SDS011;30270;40.238;18.256;2022-07-17T00:23:40;3.90;;;2.90;;
44558;SDS011;30270;40.238;18.256;2022-07-17T00:26:07;6.68;;;3.28;;
44558;SDS011;30270;40.238;18.256;2022-07-17T00:28:36;5.13;;;2.67;;
44558;SDS011;30270;40.238;18.256;2022-07-17T00:31:03;5.28;;;3.33;;
44558;SDS011;30270;40.238;18.256;2022-07-17T00:33:32;4.53;;;3.30;;
44558;SDS011;30270;40.238;18.256;2022-07-17T00:35:59;5.25;;;3.22;;
44558;SDS011;30270;40.238;18.256;2022-07-17T00:38:27;5.50;;;2.95;;
44558;SDS011;30270;40.238;18.256;2022-07-17T00:40:55;5.40;;;3.38;;
44558;SDS011;30270;40.238;18.256;2022-07-17T00:43:24;6.45;;;3.00;;
44558;SDS011;30270;40.238;18.256;2022-07-17T00:45:59;6.65;;;3.20;;
44558;SDS011;30270;40.238;18.256;2022-07-17T00:48:27;4.53;;;3.20;;
44558;SDS011;30270;40.238;18.256;2022-07-17T00:50:55;11.98;;;3.67;;
44558;SDS011;30270;40.238;18.256;2022-07-17T00:53:23;4.68;;;2.90;;
44558;SDS011;30270;40.238;18.256;2022-07-17T00:55:51;4.28;;;3.25;;
44558;SDS011;30270;40.238;18.256;2022-07-17T00:58:20;4.10;;;3.03;;
44558;SDS011;30270;40.238;18.256;2022-07-17T01:00:51;4.95;;;3.63;;
44558;SDS011;30270;40.238;18.256;2022-07-17T01:03:20;4.05;;;3.10;;
44558;SDS011;30270;40.238;18.256;2022-07-17T01:05:49;4.15;;;3.28;;
44558;SDS011;30270;40.238;18.256;2022-07-17T01:08:17;5.90;;;2.97;;
44558;SDS011;30270;40.238;18.256;2022-07-17T01:10:45;5.28;;;2.95;;
44558;SDS011;30270;40.238;18.256;2022-07-17T01:13:13;4.32;;;3.53;;
44558;SDS011;30270;40.238;18.256;2022-07-17T01:15:41;4.75;;;3.17;;
44558;SDS011;30270;40.238;18.256;2022-07-17T01:18:09;3.80;;;3.17;;
44558;SDS011;30270;40.238;18.256;2022-07-17T01:20:39;6.72;;;3.00;;
44558;SDS011;30270;40.238;18.256;2022-07-17T01:23:10;4.93;;;3.10;;
44558;SDS011;30270;40.238;18.256;2022-07-17T01:25:37;5.25;;;2.90;;
44558;SDS011;30270;40.238;18.256;2022-07-17T01:28:05;4.63;;;3.08;;
44558;SDS011;30270;40.238;18.256;2022-07-17T01:30:34;5.28;;;3.30;;
44558;SDS011;30270;40.238;18.256;2022-07-17T01:33:02;5.57;;;3.17;;
44558;SDS011;30270;40.238;18.256;2022-07-17T01:35:30;5.40;;;3.10;;
44558;SDS011;30270;40.238;18.256;2022-07-17T01:37:58;3.67;;;2.97;;
44558;SDS011;30270;40.238;18.256;2022-07-17T01:40:26;5.38;;;3.22;;
44558;SDS011;30270;40.238;18.256;2022-07-17T01:42:53;5.43;;;2.83;;
44558;SDS011;30270;40.238;18.256;2022-07-17T01:45:21;4.65;;;3.00;;
44558;SDS011;30270;40.238;18.256;2022-07-17T01:47:48;5.78;;;3.00;;
44558;SDS011;30270;40.238;18.256;2022-07-17T01:50:16;6.65;;;3.65;;
44558;SDS011;30270;40.238;18.256;2022-07-17T01:52:45;5.28;;;3.45;;
44558;SDS011;30270;40.238;18.256;2022-07-17T01:55:13;5.68;;;3.20;;
44558;SDS011;30270;40.238;18.256;2022-07-17T01:57:42;6.13;;;3.80;;
44558;SDS011;30270;40.238;18.256;2022-07-17T02:00:13;4.43;;;3.60;;
44558;SDS011;30270;40.238;18.256;2022-07-17T02:02:44;4.55;;;3.22;;
44558;SDS011;30270;40.238;18.256;2022-07-17T02:05:12;4.10;;;3.40;;
44558;SDS011;30270;40.238;18.256;2022-07-17T02:07:40;5.53;;;3.40;;
44558;SDS011;30270;40.238;18.256;2022-07-17T02:10:08;4.95;;;3.67;;
44558;SDS011;30270;40.238;18.256;2022-07-17T02:12:37;4.40;;;3.67;;
44558;SDS011;30270;40.238;18.256;2022-07-17T02:15:05;5.70;;;3.33;;
44558;SDS011;30270;40.238;18.256;2022-07-17T02:17:37;5.30;;;3.70;;
44558;SDS011;30270;40.238;18.256;2022-07-17T02:20:05;4.93;;;3.50;;
44558;SDS011;30270;40.238;18.256;2022-07-17T02:22:34;7.00;;;4.50;;
44558;SDS011;30270;40.238;18.256;2022-07-17T02:25:04;5.80;;;3.70;;
44558;SDS011;30270;40.238;18.256;2022-07-17T02:27:33;5.28;;;3.78;;
44558;SDS011;30270;40.238;18.256;2022-07-17T02:30:02;4.55;;;3.97;;
44558;SDS011;30270;40.238;18.256;2022-07-17T02:32:31;4.60;;;3.40;;
44558;SDS011;30270;40.238;18.256;2022-07-17T02:34:58;6.22;;;3.47;;
44558;SDS011;30270;40.238;18.256;2022-07-17T02:37:26;8.23;;;3.60;;
44558;SDS011;30270;40.238;18.256;2022-07-17T02:39:54;4.95;;;3.75;;
44558;SDS011;30270;40.238;18.256;2022-07-17T02:42:22;5.10;;;4.05;;
44558;SDS011;30270;40.238;18.256;2022-07-17T02:44:51;4.53;;;3.75;;
44558;SDS011;30270;40.238;18.256;2022-07-17T02:47:20;6.95;;;4.10;;
44558;SDS011;30270;40.238;18.256;2022-07-17T02:49:49;5.28;;;3.58;;
44558;SDS011;30270;40.238;18.256;2022-07-17T02:52:18;4.82;;;4.05;;
44558;SDS011;30270;40.238;18.256;2022-07-17T02:54:46;4.10;;;3.58;;
44558;SDS011;30270;40.238;18.256;2022-07-17T02:57:14;4.60;;;3.78;;
44558;SDS011;30270;40.238;18.256;2022-07-17T02:59:42;8.05;;;3.88;;
44558;SDS011;30270;40.238;18.256;2022-07-17T03:02:10;6.57;;;3.90;;
44558;SDS011;30270;40.238;18.256;2022-07-17T03:04:37;6.43;;;3.55;;
44558;SDS011;30270;40.238;18.256;2022-07-17T03:07:05;5.13;;;4.03;;
44558;SDS011;30270;40.238;18.256;2022-07-17T03:09:33;4.03;;;3.35;;
44558;SDS011;30270;40.238;18.256;2022-07-17T03:12:00;5.38;;;4.00;;
44558;SDS011;30270;40.238;18.256;2022-07-17T03:14:28;9.20;;;4.80;;
44558;SDS011;30270;40.238;18.256;2022-07-17T03:16:55;4.57;;;3.85;;
44558;SDS011;30270;40.238;18.256;2022-07-17T03:19:23;6.68;;;4.00;;
44558;SDS011;30270;40.238;18.256;2022-07-17T03:21:50;6.63;;;4.20;;
44558;SDS011;30270;40.238;18.256;2022-07-17T03:24:18;4.88;;;4.03;;
44558;SDS011;30270;40.238;18.256;2022-07-17T03:26:45;5.00;;;4.03;;
44558;SDS011;30270;40.238;18.256;2022-07-17T03:29:13;7.90;;;4.72;;
44558;SDS011;30270;40.238;18.256;2022-07-17T03:31:44;7.28;;;4.13;;
44558;SDS011;30270;40.238;18.256;2022-07-17T03:34:15;6.55;;;4.50;;
44558;SDS011;30270;40.238;18.256;2022-07-17T03:36:42;6.07;;;4.32;;
44558;SDS011;30270;40.238;18.256;2022-07-17T03:39:10;7.63;;;4.60;;
44558;SDS011;30270;40.238;18.256;2022-07-17T03:41:38;6.63;;;4.60;;
44558;SDS011;30270;40.238;18.256;2022-07-17T03:44:07;6.65;;;4.57;;
44558;SDS011;30270;40.238;18.256;2022-07-17T03:46:34;5.18;;;4.20;;
44558;SDS011;30270;40.238;18.256;2022-07-17T03:49:02;5.93;;;4.47;;
44558;SDS011;30270;40.238;18.256;2022-07-17T03:51:30;5.95;;;4.35;;
44558;SDS011;30270;40.238;18.256;2022-07-17T03:53:57;7.47;;;5.20;;
44558;SDS011;30270;40.238;18.256;2022-07-17T03:56:25;4.90;;;4.38;;
44558;SDS011;30270;40.238;18.256;2022-07-17T03:58:53;5.53;;;4.38;;
44558;SDS011;30270;40.238;18.256;2022-07-17T04:01:20;6.72;;;4.75;;
44558;SDS011;30270;40.238;18.256;2022-07-17T04:03:48;6.40;;;4.80;;
44558;SDS011;30270;40.238;18.256;2022-07-17T04:06:16;5.85;;;4.43;;
44558;SDS011;30270;40.238;18.256;2022-07-17T04:08:43;5.90;;;4.25;;
44558;SDS011;30270;40.238;18.256;2022-07-17T04:11:11;8.27;;;5.18;;
44558;SDS011;30270;40.238;18.256;2022-07-17T04:13:39;5.82;;;4.30;;
44558;SDS011;30270;40.238;18.256;2022-07-17T04:16:06;6.70;;;5.15;;
44558;SDS011;30270;40.238;18.256;2022-07-17T04:18:34;8.18;;;4.90;;
44558;SDS011;30270;40.238;18.256;2022-07-17T04:21:04;12.45;;;6.10;;
44558;SDS011;30270;40.238;18.256;2022-07-17T04:23:33;7.43;;;4.72;;
44558;SDS011;30270;40.238;18.256;2022-07-17T04:26:02;8.02;;;5.55;;
44558;SDS011;30270;40.238;18.256;2022-07-17T04:28:35;5.80;;;4.55;;
44558;SDS011;30270;40.238;18.256;2022-07-17T04:31:03;7.25;;;5.00;;
44558;SDS011;30270;40.238;18.256;2022-07-17T04:33:30;8.63;;;5.35;;
44558;SDS011;30270;40.238;18.256;2022-07-17T04:35:58;6.38;;;5.07;;
44558;SDS011;30270;40.238;18.256;2022-07-17T04:38:25;8.02;;;5.68;;
44558;SDS011;30270;40.238;18.256;2022-07-17T04:40:53;8.95;;;5.93;;
44558;SDS011;30270;40.238;18.256;2022-07-17T04:43:21;6.82;;;5.57;;
44558;SDS011;30270;40.238;18.256;2022-07-17T04:45:48;11.38;;;6.75;;
44558;SDS011;30270;40.238;18.256;2022-07-17T04:48:16;8.18;;;5.35;;
44558;SDS011;30270;40.238;18.256;2022-07-17T04:50:44;10.95;;;6.53;;
44558;SDS011;30270;40.238;18.256;2022-07-17T04:53:11;12.05;;;7.13;;
44558;SDS011;30270;40.238;18.256;2022-07-17T04:55:39;7.43;;;6.38;;
44558;SDS011;30270;40.238;18.256;2022-07-17T04:58:07;8.50;;;5.90;;
44558;SDS011;30270;40.238;18.256;2022-07-17T05:00:34;6.63;;;5.50;;
44558;SDS011;30270;40.238;18.256;2022-07-17T05:03:02;7.75;;;5.65;;
44558;SDS011;30270;40.238;18.256;2022-07-17T05:05:30;9.80;;;5.57;;
44558;SDS011;30270;40.238;18.256;2022-07-17T05:07:57;5.80;;;4.68;;
44558;SDS011;30270;40.238;18.256;2022-07-17T05:10:25;7.82;;;5.32;;
44558;SDS011;30270;40.238;18.256;2022-07-17T05:12:53;6.85;;;5.55;;
44558;SDS011;30270;40.238;18.256;2022-07-17T05:15:21;7.65;;;4.53;;
44558;SDS011;30270;40.238;18.256;2022-07-17T05:17:49;6.65;;;4.85;;
44558;SDS011;30270;40.238;18.256;2022-07-17T05:20:16;5.43;;;4.53;;
44558;SDS011;30270;40.238;18.256;2022-07-17T05:22:44;6.95;;;4.22;;
44558;SDS011;30270;40.238;18.256;2022-07-17T05:25:12;7.68;;;4.90;;
44558;SDS011;30270;40.238;18.256;2022-07-17T05:27:39;7.63;;;4.20;;
44558;SDS011;30270;40.238;18.256;2022-07-17T05:30:07;5.13;;;3.42;;
44558;SDS011;30270;40.238;18.256;2022-07-17T05:32:35;5.10;;;3.72;;
44558;SDS011;30270;40.238;18.256;2022-07-17T05:35:03;6.63;;;4.43;;
44558;SDS011;30270;40.238;18.256;2022-07-17T05:37:31;6.22;;;4.45;;
44558;SDS011;30270;40.238;18.256;2022-07-17T05:39:58;7.28;;;4.40;;
44558;SDS011;30270;40.238;18.256;2022-07-17T05:42:26;5.82;;;4.05;;
44558;SDS011;30270;40.238;18.256;2022-07-17T05:44:56;4.57;;;3.70;;
44558;SDS011;30270;40.238;18.256;2022-07-17T05:47:25;6.00;;;3.58;;
44558;SDS011;30270;40.238;18.256;2022-07-17T05:49:53;6.63;;;3.80;;
44558;SDS011;30270;40.238;18.256;2022-07-17T05:52:21;4.53;;;3.35;;
44558;SDS011;30270;40.238;18.256;2022-07-17T05:54:48;4.13;;;2.70;;
44558;SDS011;30270;40.238;18.256;2022-07-17T05:57:16;3.88;;;2.83;;
44558;SDS011;30270;40.238;18.256;2022-07-17T05:59:43;3.53;;;3.00;;
44558;SDS011;30270;40.238;18.256;2022-07-17T06:02:11;5.70;;;3.03;;
44558;SDS011;30270;40.238;18.256;2022-07-17T06:04:39;5.68;;;3.17;;
44558;SDS011;30270;40.238;18.256;2022-07-17T06:07:06;4.45;;;3.13;;
44558;SDS011;30270;40.238;18.256;2022-07-17T06:09:34;5.40;;;3.70;;
44558;SDS011;30270;40.238;18.256;2022-07-17T06:12:01;5.35;;;3.30;;
44558;SDS011;30270;40.238;18.256;2022-07-17T06:14:29;3.95;;;3.20;;
44558;SDS011;30270;40.238;18.256;2022-07-17T06:16:57;4.53;;;3.10;;
44558;SDS011;30270;40.238;18.256;2022-07-17T06:19:24;5.47;;;3.28;;
44558;SDS011;30270;40.238;18.256;2022-07-17T06:21:52;4.10;;;3.50;;
44558;SDS011;30270;40.238;18.256;2022-07-17T06:24:19;7.45;;;3.58;;
44558;SDS011;30270;40.238;18.256;2022-07-17T06:26:47;7.13;;;3.40;;
44558;SDS011;30270;40.238;18.256;2022-07-17T06:29:15;6.65;;;2.90;;
44558;SDS011;30270;40.238;18.256;2022-07-17T06:31:44;4.80;;;3.00;;
44558;SDS011;30270;40.238;18.256;2022-07-17T06:34:11;4.93;;;2.95;;
44558;SDS011;30270;40.238;18.256;2022-07-17T06:36:39;3.10;;;2.28;;
44558;SDS011;30270;40.238;18.256;2022-07-17T06:39:06;3.65;;;2.75;;
44558;SDS011;30270;40.238;18.256;2022-07-17T06:41:34;5.32;;;2.67;;
44558;SDS011;30270;40.238;18.256;2022-07-17T06:44:03;5.03;;;2.63;;
44558;SDS011;30270;40.238;18.256;2022-07-17T06:46:31;4.80;;;2.60;;
44558;SDS011;30270;40.238;18.256;2022-07-17T06:48:58;6.40;;;2.00;;
44558;SDS011;30270;40.238;18.256;2022-07-17T06:51:26;2.95;;;2.00;;
44558;SDS011;30270;40.238;18.256;2022-07-17T06:53:53;2.13;;;1.50;;
44558;SDS011;30270;40.238;18.256;2022-07-17T06:56:21;3.17;;;1.85;;
44558;SDS011;30270;40.238;18.256;2022-07-17T06:58:49;4.22;;;1.75;;
44558;SDS011;30270;40.238;18.256;2022-07-17T07:01:16;3.40;;;1.80;;
44558;SDS011;30270;40.238;18.256;2022-07-17T07:03:44;3.25;;;1.63;;
44558;SDS011;30270;40.238;18.256;2022-07-17T07:06:11;3.70;;;2.03;;
44558;SDS011;30270;40.238;18.256;2022-07-17T07:08:39;2.10;;;1.40;;
44558;SDS011;30270;40.238;18.256;2022-07-17T07:11:07;1.92;;;1.35;;
44558;SDS011;30270;40.238;18.256;2022-07-17T07:13:35;4.82;;;1.67;;
44558;SDS011;30270;40.238;18.256;2022-07-17T07:16:02;4.93;;;1.88;;
44558;SDS011;30270;40.238;18.256;2022-07-17T07:18:30;2.97;;;1.50;;
44558;SDS011;30270;40.238;18.256;2022-07-17T07:20:58;2.50;;;1.50;;
44558;SDS011;30270;40.238;18.256;2022-07-17T07:23:25;2.75;;;1.38;;
44558;SDS011;30270;40.238;18.256;2022-07-17T07:25:53;3.70;;;1.50;;
44558;SDS011;30270;40.238;18.256;2022-07-17T07:28:20;3.38;;;1.35;;
44558;SDS011;30270;40.238;18.256;2022-07-17T07:30:48;2.92;;;1.45;;
44558;SDS011;30270;40.238;18.256;2022-07-17T07:33:16;1.92;;;1.30;;
44558;SDS011;30270;40.238;18.256;2022-07-17T07:35:43;1.90;;;1.30;;
44558;SDS011;30270;40.238;18.256;2022-07-17T07:38:11;2.47;;;1.48;;
44558;SDS011;30270;40.238;18.256;2022-07-17T07:40:38;1.77;;;1.20;;
44558;SDS011;30270;40.238;18.256;2022-07-17T07:43:06;3.15;;;1.95;;
44558;SDS011;30270;40.238;18.256;2022-07-17T07:45:34;2.00;;;1.40;;
44558;SDS011;30270;40.238;18.256;2022-07-17T07:48:01;2.72;;;1.58;;
44558;SDS011;30270;40.238;18.256;2022-07-17T07:50:29;2.65;;;1.40;;
44558;SDS011;30270;40.238;18.256;2022-07-17T07:52:57;3.35;;;1.95;;
44558;SDS011;30270;40.238;18.256;2022-07-17T07:55:25;3.58;;;1.98;;
44558;SDS011;30270;40.238;18.256;2022-07-17T07:58:09;3.53;;;2.10;;
44558;SDS011;30270;40.238;18.256;2022-07-17T08:00:38;2.33;;;1.65;;
44558;SDS011;30270;40.238;18.256;2022-07-17T08:03:09;2.58;;;1.80;;
44558;SDS011;30270;40.238;18.256;2022-07-17T08:05:37;3.55;;;1.92;;
44558;SDS011;30270;40.238;18.256;2022-07-17T08:08:05;2.63;;;1.95;;
44558;SDS011;30270;40.238;18.256;2022-07-17T08:10:33;2.90;;;2.10;;
44558;SDS011;30270;40.238;18.256;2022-07-17T08:13:01;3.78;;;1.73;;
44558;SDS011;30270;40.238;18.256;2022-07-17T08:15:29;4.47;;;2.30;;
44558;SDS011;30270;40.238;18.256;2022-07-17T08:17:58;4.90;;;2.17;;
44558;SDS011;30270;40.238;18.256;2022-07-17T08:20:26;3.15;;;1.70;;
44558;SDS011;30270;40.238;18.256;2022-07-17T08:22:54;3.60;;;1.80;;
44558;SDS011;30270;40.238;18.256;2022-07-17T08:25:30;2.08;;;1.70;;
44558;SDS011;30270;40.238;18.256;2022-07-17T08:27:59;2.35;;;1.60;;
44558;SDS011;30270;40.238;18.256;2022-07-17T08:30:27;2.53;;;1.60;;
44558;SDS011;30270;40.238;18.256;2022-07-17T08:32:54;3.63;;;1.60;;
44558;SDS011;30270;40.238;18.256;2022-07-17T08:35:22;3.78;;;1.77;;
44558;SDS011;30270;40.238;18.256;2022-07-17T08:37:50;4.20;;;1.88;;
44558;SDS011;30270;40.238;18.256;2022-07-17T08:40:19;2.13;;;1.38;;
44558;SDS011;30270;40.238;18.256;2022-07-17T08:42:47;4.13;;;1.80;;
44558;SDS011;30270;40.238;18.256;2022-07-17T08:45:16;4.38;;;1.98;;
44558;SDS011;30270;40.238;18.256;2022-07-17T08:47:44;2.97;;;2.03;;
44558;SDS011;30270;40.238;18.256;2022-07-17T08:50:12;4.18;;;1.90;;
44558;SDS011;30270;40.238;18.256;2022-07-17T08:52:41;4.05;;;1.70;;
44558;SDS011;30270;40.238;18.256;2022-07-17T08:55:11;4.15;;;1.83;;
44558;SDS011;30270;40.238;18.256;2022-07-17T08:57:41;2.65;;;1.73;;
44558;SDS011;30270;40.238;18.256;2022-07-17T09:00:12;3.10;;;1.67;;
44558;SDS011;30270;40.238;18.256;2022-07-17T09:03:03;3.40;;;2.00;;
44558;SDS011;30270;40.238;18.256;2022-07-17T09:05:34;4.22;;;2.28;;
44558;SDS011;30270;40.238;18.256;2022-07-17T09:08:05;2.75;;;1.83;;
44558;SDS011;30270;40.238;18.256;2022-07-17T09:15:54;3.33;;;1.83;;
44558;SDS011;30270;40.238;18.256;2022-07-17T09:18:25;2.90;;;2.10;;
44558;SDS011;30270;40.238;18.256;2022-07-17T09:20:53;3.08;;;1.55;;
44558;SDS011;30270;40.238;18.256;2022-07-17T09:23:25;3.63;;;1.85;;
44558;SDS011;30270;40.238;18.256;2022-07-17T09:25:54;3.10;;;2.10;;
44558;SDS011;30270;40.238;18.256;2022-07-17T09:28:23;4.68;;;2.15;;
44558;SDS011;30270;40.238;18.256;2022-07-17T09:30:52;3.58;;;1.80;;
44558;SDS011;30270;40.238;18.256;2022-07-17T09:33:22;2.50;;;1.92;;
44558;SDS011;30270;40.238;18.256;2022-07-17T09:35:57;2.90;;;1.63;;
44558;SDS011;30270;40.238;18.256;2022-07-17T09:38:35;4.15;;;2.03;;
44558;SDS011;30270;40.238;18.256;2022-07-17T09:41:05;3.78;;;1.73;;
44558;SDS011;30270;40.238;18.256;2022-07-17T09:43:47;4.03;;;2.40;;
44558;SDS011;30270;40.238;18.256;2022-07-17T09:46:23;3.22;;;1.50;;
44558;SDS011;30270;40.238;18.256;2022-07-17T09:49:05;4.28;;;2.05;;
44558;SDS011;30270;40.238;18.256;2022-07-17T09:51:38;6.13;;;1.90;;
44558;SDS011;30270;40.238;18.256;2022-07-17T09:54:07;3.13;;;2.20;;
44558;SDS011;30270;40.238;18.256;2022-07-17T09:56:38;4.63;;;2.00;;
44558;SDS011;30270;40.238;18.256;2022-07-17T09:59:06;3.15;;;1.60;;
44558;SDS011;30270;40.238;18.256;2022-07-17T10:01:39;3.30;;;1.50;;
44558;SDS011;30270;40.238;18.256;2022-07-17T10:04:10;3.25;;;1.77;;
44558;SDS011;30270;40.238;18.256;2022-07-17T10:06:39;1.83;;;1.50;;
44558;SDS011;30270;40.238;18.256;2022-07-17T10:09:06;2.60;;;1.85;;
44558;SDS011;30270;40.238;18.256;2022-07-17T10:11:35;3.58;;;1.80;;
44558;SDS011;30270;40.238;18.256;2022-07-17T10:14:09;3.47;;;1.83;;
44558;SDS011;30270;40.238;18.256;2022-07-17T10:16:39;4.47;;;1.55;;
44558;SDS011;30270;40.238;18.256;2022-07-17T10:19:17;3.05;;;1.85;;
44558;SDS011;30270;40.238;18.256;2022-07-17T10:21:57;4.38;;;2.00;;
44558;SDS011;30270;40.238;18.256;2022-07-17T10:24:32;2.53;;;2.10;;
44558;SDS011;30270;40.238;18.256;2022-07-17T10:27:35;4.70;;;2.20;;
44558;SDS011;30270;40.238;18.256;2022-07-17T10:30:03;3.72;;;2.22;;
44558;SDS011;30270;40.238;18.256;2022-07-17T10:32:32;3.72;;;2.38;;
44558;SDS011;30270;40.238;18.256;2022-07-17T10:35:02;3.38;;;1.95;;
44558;SDS011;30270;40.238;18.256;2022-07-17T10:40:15;3.40;;;1.90;;
44558;SDS011;30270;40.238;18.256;2022-07-17T10:45:16;3.55;;;1.98;;
44558;SDS011;30270;40.238;18.256;2022-07-17T10:47:47;2.60;;;1.75;;
44558;SDS011;30270;40.238;18.256;2022-07-17T10:50:23;3.08;;;2.10;;
44558;SDS011;30270;40.238;18.256;2022-07-17T10:53:00;4.07;;;1.80;;
44558;SDS011;30270;40.238;18.256;2022-07-17T10:55:29;3.25;;;1.90;;
44558;SDS011;30270;40.238;18.256;2022-07-17T10:57:58;2.65;;;1.70;;
44558;SDS011;30270;40.238;18.256;2022-07-17T11:00:25;2.83;;;2.00;;
44558;SDS011;30270;40.238;18.256;2022-07-17T11:02:53;2.88;;;2.22;;
44558;SDS011;30270;40.238;18.256;2022-07-17T11:05:21;2.40;;;1.80;;
44558;SDS011;30270;40.238;18.256;2022-07-17T11:07:56;2.88;;;2.13;;
44558;SDS011;30270;40.238;18.256;2022-07-17T11:10:26;4.30;;;1.95;;
44558;SDS011;30270;40.238;18.256;2022-07-17T11:12:55;3.08;;;2.13;;
44558;SDS011;30270;40.238;18.256;2022-07-17T11:15:39;2.90;;;1.83;;
44558;SDS011;30270;40.238;18.256;2022-07-17T11:18:12;1.92;;;1.58;;
44558;SDS011;30270;40.238;18.256;2022-07-17T11:31:26;2.72;;;1.80;;
44558;SDS011;30270;40.238;18.256;2022-07-17T11:33:55;3.30;;;1.90;;
44558;SDS011;30270;40.238;18.256;2022-07-17T11:39:03;3.28;;;2.13;;
44558;SDS011;30270;40.238;18.256;2022-07-17T11:41:33;3.20;;;1.88;;
44558;SDS011;30270;40.238;18.256;2022-07-17T11:44:03;4.78;;;2.30;;
44558;SDS011;30270;40.238;18.256;2022-07-17T11:46:33;2.88;;;1.90;;
44558;SDS011;30270;40.238;18.256;2022-07-17T11:49:01;2.28;;;1.70;;
44558;SDS011;30270;40.238;18.256;2022-07-17T11:51:38;4.05;;;1.98;;
44558;SDS011;30270;40.238;18.256;2022-07-17T11:54:11;3.15;;;2.05;;
44558;SDS011;30270;40.238;18.256;2022-07-17T11:56:39;4.55;;;2.90;;
44558;SDS011;30270;40.238;18.256;2022-07-17T11:59:09;3.80;;;3.10;;
44558;SDS011;30270;40.238;18.256;2022-07-17T12:01:46;5.93;;;3.38;;
44558;SDS011;30270;40.238;18.256;2022-07-17T12:04:15;3.53;;;3.00;;
44558;SDS011;30270;40.238;18.256;2022-07-17T12:06:43;3.42;;;2.45;;
44558;SDS011;30270;40.238;18.256;2022-07-17T12:09:12;2.95;;;2.20;;
44558;SDS011;30270;40.238;18.256;2022-07-17T12:11:48;2.80;;;1.90;;
44558;SDS011;30270;40.238;18.256;2022-07-17T12:14:17;4.05;;;2.03;;
44558;SDS011;30270;40.238;18.256;2022-07-17T12:16:44;3.15;;;2.38;;
44558;SDS011;30270;40.238;18.256;2022-07-17T12:19:14;4.82;;;2.15;;
44558;SDS011;30270;40.238;18.256;2022-07-17T12:21:47;2.53;;;1.77;;
44558;SDS011;30270;40.238;18.256;2022-07-17T12:24:36;4.20;;;2.03;;
44558;SDS011;30270;40.238;18.256;2022-07-17T12:27:07;3.10;;;1.80;;
44558;SDS011;30270;40.238;18.256;2022-07-17T12:29:37;4.68;;;2.00;;
44558;SDS011;30270;40.238;18.256;2022-07-17T12:32:09;2.47;;;1.88;;
44558;SDS011;30270;40.238;18.256;2022-07-17T12:34:39;2.78;;;1.88;;
44558;SDS011;30270;40.238;18.256;2022-07-17T12:37:19;2.30;;;1.70;;
44558;SDS011;30270;40.238;18.256;2022-07-17T12:39:48;3.63;;;1.95;;
44558;SDS011;30270;40.238;18.256;2022-07-17T12:42:16;3.28;;;1.60;;
44558;SDS011;30270;40.238;18.256;2022-07-17T12:44:44;2.88;;;1.92;;
44558;SDS011;30270;40.238;18.256;2022-07-17T12:47:12;4.70;;;2.55;;
44558;SDS011;30270;40.238;18.256;2022-07-17T12:49:41;2.63;;;1.67;;
44558;SDS011;30270;40.238;18.256;2022-07-17T12:52:09;4.30;;;2.40;;
44558;SDS011;30270;40.238;18.256;2022-07-17T12:54:36;2.22;;;1.70;;
44558;SDS011;30270;40.238;18.256;2022-07-17T12:57:04;9.23;;;1.75;;
44558;SDS011;30270;40.238;18.256;2022-07-17T12:59:32;2.72;;;1.70;;
44558;SDS011;30270;40.238;18.256;2022-07-17T13:02:01;4.82;;;1.92;;
44558;SDS011;30270;40.238;18.256;2022-07-17T13:04:29;2.92;;;2.10;;
44558;SDS011;30270;40.238;18.256;2022-07-17T13:06:56;3.22;;;1.92;;
44558;SDS011;30270;40.238;18.256;2022-07-17T13:09:24;3.38;;;1.95;;
44558;SDS011;30270;40.238;18.256;2022-07-17T13:11:52;3.67;;;1.92;;
44558;SDS011;30270;40.238;18.256;2022-07-17T13:14:19;5.32;;;2.08;;
44558;SDS011;30270;40.238;18.256;2022-07-17T13:16:47;3.70;;;2.03;;
44558;SDS011;30270;40.238;18.256;2022-07-17T13:19:15;3.13;;;1.90;;
44558;SDS011;30270;40.238;18.256;2022-07-17T13:21:43;3.33;;;1.70;;
44558;SDS011;30270;40.238;18.256;2022-07-17T13:24:10;3.72;;;2.10;;
44558;SDS011;30270;40.238;18.256;2022-07-17T13:26:38;3.55;;;2.35;;
44558;SDS011;30270;40.238;18.256;2022-07-17T13:29:06;4.30;;;1.85;;
44558;SDS011;30270;40.238;18.256;2022-07-17T13:31:34;2.67;;;1.98;;
44558;SDS011;30270;40.238;18.256;2022-07-17T13:34:02;4.13;;;2.03;;
44558;SDS011;30270;40.238;18.256;2022-07-17T13:36:29;4.60;;;3.20;;
44558;SDS011;30270;40.238;18.256;2022-07-17T13:38:57;3.20;;;2.10;;
44558;SDS011;30270;40.238;18.256;2022-07-17T13:41:25;3.58;;;1.90;;
44558;SDS011;30270;40.238;18.256;2022-07-17T13:43:52;2.80;;;1.77;;
44558;SDS011;30270;40.238;18.256;2022-07-17T13:46:20;3.80;;;2.10;;
44558;SDS011;30270;40.238;18.256;2022-07-17T13:48:48;2.92;;;2.00;;
44558;SDS011;30270;40.238;18.256;2022-07-17T13:51:16;3.05;;;2.03;;
44558;SDS011;30270;40.238;18.256;2022-07-17T13:53:43;3.50;;;2.30;;
44558;SDS011;30270;40.238;18.256;2022-07-17T13:56:11;3.08;;;1.92;;
44558;SDS011;30270;40.238;18.256;2022-07-17T13:58:39;2.78;;;2.20;;
44558;SDS011;30270;40.238;18.256;2022-07-17T14:01:06;3.75;;;1.98;;
44558;SDS011;30270;40.238;18.256;2022-07-17T14:03:34;4.85;;;2.15;;
44558;SDS011;30270;40.238;18.256;2022-07-17T14:06:02;3.08;;;2.20;;
44558;SDS011;30270;40.238;18.256;2022-07-17T14:08:29;3.45;;;2.05;;
44558;SDS011;30270;40.238;18.256;2022-07-17T14:10:57;3.80;;;2.00;;
44558;SDS011;30270;40.238;18.256;2022-07-17T14:13:25;5.28;;;2.28;;
44558;SDS011;30270;40.238;18.256;2022-07-17T14:15:53;3.75;;;2.20;;
44558;SDS011;30270;40.238;18.256;2022-07-17T14:18:21;4.15;;;2.28;;
44558;SDS011;30270;40.238;18.256;2022-07-17T14:20:49;3.22;;;2.42;;
44558;SDS011;30270;40.238;18.256;2022-07-17T14:23:17;3.03;;;2.10;;
44558;SDS011;30270;40.238;18.256;2022-07-17T14:25:44;3.55;;;2.20;;
44558;SDS011;30270;40.238;18.256;2022-07-17T14:28:12;3.78;;;2.10;;
44558;SDS011;30270;40.238;18.256;2022-07-17T14:30:40;4.72;;;2.38;;
44558;SDS011;30270;40.238;18.256;2022-07-17T14:33:08;2.85;;;1.90;;
44558;SDS011;30270;40.238;18.256;2022-07-17T14:35:35;4.22;;;2.40;;
44558;SDS011;30270;40.238;18.256;2022-07-17T14:38:03;4.22;;;2.15;;
44558;SDS011;30270;40.238;18.256;2022-07-17T14:40:33;5.38;;;2.10;;
44558;SDS011;30270;40.238;18.256;2022-07-17T14:43:01;3.22;;;2.47;;
44558;SDS011;30270;40.238;18.256;2022-07-17T14:45:29;3.75;;;2.25;;
44558;SDS011;30270;40.238;18.256;2022-07-17T14:47:57;6.78;;;2.53;;
44558;SDS011;30270;40.238;18.256;2022-07-17T14:50:25;5.32;;;3.28;;
44558;SDS011;30270;40.238;18.256;2022-07-17T14:52:52;3.30;;;2.30;;
44558;SDS011;30270;40.238;18.256;2022-07-17T14:55:20;4.43;;;2.45;;
44558;SDS011;30270;40.238;18.256;2022-07-17T14:57:50;3.72;;;2.45;;
44558;SDS011;30270;40.238;18.256;2022-07-17T15:00:18;4.43;;;2.42;;
44558;SDS011;30270;40.238;18.256;2022-07-17T15:02:46;4.95;;;2.97;;
44558;SDS011;30270;40.238;18.256;2022-07-17T15:05:13;3.25;;;2.30;;
44558;SDS011;30270;40.238;18.256;2022-07-17T15:07:41;6.90;;;3.10;;